sensor_id;sensor_type;location;lat;lon;timestamp;pressure;altitude;pressure_sealevel;temperature;humidity
15914;BME280;8055;51.930;8.840;2024-02-28T00:00:09;77724.72;;;-145.72;100.00
15914;BME280;8055;51.930;8.840;2024-02-28T00:02:36;77737.13;;;-145.72;100.00
15914;BME280;8055;51.930;8.840;2024-02-28T00:05:02;77735.06;;;-145.72;100.00
15914;BME280;8055;51.930;8.840;2024-02-28T00:07:27;77751.63;;;-145.72;100.00
15914;BME280;8055;51.930;8.840;2024-02-28T00:09:52;77741.28;;;-145.72;100.00
15914;BME280;8055;51.930;8.840;2024-02-28T00:12:22;77733.00;;;-145.72;100.00
15914;BME280;8055;51.930;8.840;2024-02-28T00:14:50;77741.28;;;-145.72;100.00
15914;BME280;8055;51.930;8.840;2024-02-28T00:17:15;77751.63;;;-145.72;100.00
15914;BME280;8055;51.930;8.840;2024-02-28T00:19:40;77737.13;;;-145.72;100.00
15914;BME280;8055;51.930;8.840;2024-02-28T00:22:07;77724.72;;;-145.72;100.00
15914;BME280;8055;51.930;8.840;2024-02-28T00:24:33;77737.13;;;-145.72;100.00
15914;BME280;8055;51.930;8.840;2024-02-28T00:26:58;77737.13;;;-145.72;100.00
15914;BME280;8055;51.930;8.840;2024-02-28T00:29:23;77743.34;;;-145.72;100.00
15914;BME280;8055;51.930;8.840;2024-02-28T00:31:49;77755.78;;;-145.72;100.00
15914;BME280;8055;51.930;8.840;2024-02-28T00:34:14;77751.63;;;-145.72;100.00
15914;BME280;8055;51.930;8.840;2024-02-28T00:36:40;77757.84;;;-145.72;100.00
15914;BME280;8055;51.930;8.840;2024-02-28T00:39:05;77766.13;;;-145.72;100.00
15914;BME280;8055;51.930;8.840;2024-02-28T00:41:31;77757.84;;;-145.72;100.00
15914;BME280;8055;51.930;8.840;2024-02-28T00:43:56;77749.56;;;-145.72;100.00
15914;BME280;8055;51.930;8.840;2024-02-28T00:46:22;77749.56;;;-145.72;100.00
15914;BME280;8055;51.930;8.840;2024-02-28T00:48:47;77759.91;;;-145.72;100.00
15914;BME280;8055;51.930;8.840;2024-02-28T00:51:12;77764.06;;;-145.72;100.00
15914;BME280;8055;51.930;8.840;2024-02-28T00:53:38;77774.41;;;-145.72;100.00
15914;BME280;8055;51.930;8.840;2024-02-28T00:56:04;77776.47;;;-145.72;100.00
15914;BME280;8055;51.930;8.840;2024-02-28T00:58:30;77784.75;;;-145.72;100.00
15914;BME280;8055;51.930;8.840;2024-02-28T01:00:56;77776.47;;;-145.72;100.00
15914;BME280;8055;51.930;8.840;2024-02-28T01:03:22;77766.13;;;-145.72;100.00
15914;BME280;8055;51.930;8.840;2024-02-28T01:05:49;77766.13;;;-145.72;100.00
15914;BME280;8055;51.930;8.840;2024-02-28T01:08:14;77770.25;;;-145.72;100.00
15914;BME280;8055;51.930;8.840;2024-02-28T01:10:42;77780.63;;;-145.72;100.00
15914;BME280;8055;51.930;8.840;2024-02-28T01:13:07;77770.25;;;-145.72;100.00
15914;BME280;8055;51.930;8.840;2024-02-28T01:15:33;77778.56;;;-145.72;100.00
15914;BME280;8055;51.930;8.840;2024-02-28T01:17:58;77772.34;;;-145.72;100.00
15914;BME280;8055;51.930;8.840;2024-02-28T01:20:24;77784.75;;;-145.72;100.00
15914;BME280;8055;51.930;8.840;2024-02-28T01:22:49;77801.31;;;-145.72;100.00
15914;BME280;8055;51.930;8.840;2024-02-28T01:25:14;77799.25;;;-145.72;100.00
15914;BME280;8055;51.930;8.840;2024-02-28T01:27:39;77809.59;;;-145.72;100.00
15914;BME280;8055;51.930;8.840;2024-02-28T01:30:06;77813.75;;;-145.72;100.00
15914;BME280;8055;51.930;8.840;2024-02-28T01:32:31;77817.88;;;-145.72;100.00
15914;BME280;8055;51.930;8.840;2024-02-28T01:34:57;77805.47;;;-145.72;100.00
15914;BME280;8055;51.930;8.840;2024-02-28T01:37:22;77813.75;;;-145.72;100.00
15914;BME280;8055;51.930;8.840;2024-02-28T01:39:47;77807.53;;;-145.72;100.00
15914;BME280;8055;51.930;8.840;2024-02-28T01:42:14;77815.81;;;-145.72;100.00
15914;BME280;8055;51.930;8.840;2024-02-28T01:44:48;77807.53;;;-145.72;100.00
15914;BME280;8055;51.930;8.840;2024-02-28T01:47:14;77813.75;;;-145.72;100.00
15914;BME280;8055;51.930;8.840;2024-02-28T01:49:41;77809.59;;;-145.72;100.00
15914;BME280;8055;51.930;8.840;2024-02-28T01:52:08;77830.31;;;-145.72;100.00
15914;BME280;8055;51.930;8.840;2024-02-28T01:54:35;77828.22;;;-145.72;100.00
15914;BME280;8055;51.930;8.840;2024-02-28T01:57:01;77826.16;;;-145.72;100.00
15914;BME280;8055;51.930;8.840;2024-02-28T01:59:27;77813.75;;;-145.72;100.00
15914;BME280;8055;51.930;8.840;2024-02-28T02:01:55;77805.47;;;-145.72;100.00
15914;BME280;8055;51.930;8.840;2024-02-28T02:04:20;77807.53;;;-145.72;100.00
15914;BME280;8055;51.930;8.840;2024-02-28T02:06:47;77803.38;;;-145.72;100.00
15914;BME280;8055;51.930;8.840;2024-02-28T02:09:14;77809.59;;;-145.72;100.00
15914;BME280;8055;51.930;8.840;2024-02-28T02:11:40;77811.66;;;-145.72;100.00
15914;BME280;8055;51.930;8.840;2024-02-28T02:14:06;77801.31;;;-145.72;100.00
15914;BME280;8055;51.930;8.840;2024-02-28T02:16:31;77805.47;;;-145.72;100.00
15914;BME280;8055;51.930;8.840;2024-02-28T02:18:57;77807.53;;;-145.72;100.00
15914;BME280;8055;51.930;8.840;2024-02-28T02:21:34;77811.66;;;-145.72;100.00
15914;BME280;8055;51.930;8.840;2024-02-28T02:24:02;77822.03;;;-145.72;100.00
15914;BME280;8055;51.930;8.840;2024-02-28T02:26:28;77815.81;;;-145.72;100.00
15914;BME280;8055;51.930;8.840;2024-02-28T02:28:53;77815.81;;;-145.72;100.00
15914;BME280;8055;51.930;8.840;2024-02-28T02:31:19;77809.59;;;-145.72;100.00
15914;BME280;8055;51.930;8.840;2024-02-28T02:33:45;77813.75;;;-145.72;100.00
15914;BME280;8055;51.930;8.840;2024-02-28T02:36:10;77830.31;;;-145.72;100.00
15914;BME280;8055;51.930;8.840;2024-02-28T02:38:35;77819.94;;;-145.72;100.00
15914;BME280;8055;51.930;8.840;2024-02-28T02:41:01;77815.81;;;-145.72;100.00
15914;BME280;8055;51.930;8.840;2024-02-28T02:43:26;77813.75;;;-145.72;100.00
15914;BME280;8055;51.930;8.840;2024-02-28T02:45:51;77828.22;;;-145.72;100.00
15914;BME280;8055;51.930;8.840;2024-02-28T02:48:17;77819.94;;;-145.72;100.00
15914;BME280;8055;51.930;8.840;2024-02-28T02:50:42;77824.09;;;-145.72;100.00
15914;BME280;8055;51.930;8.840;2024-02-28T02:53:09;77830.31;;;-145.72;100.00
15914;BME280;8055;51.930;8.840;2024-02-28T02:55:35;77830.31;;;-145.72;100.00
15914;BME280;8055;51.930;8.840;2024-02-28T02:58:00;77819.94;;;-145.72;100.00
15914;BME280;8055;51.930;8.840;2024-02-28T03:00:26;77824.09;;;-145.72;100.00
15914;BME280;8055;51.930;8.840;2024-02-28T03:02:51;77832.38;;;-145.72;100.00
15914;BME280;8055;51.930;8.840;2024-02-28T03:05:16;77842.72;;;-145.72;100.00
15914;BME280;8055;51.930;8.840;2024-02-28T03:07:42;77844.78;;;-145.72;100.00
15914;BME280;8055;51.930;8.840;2024-02-28T03:10:07;77844.78;;;-145.72;100.00
15914;BME280;8055;51.930;8.840;2024-02-28T03:12:34;77846.88;;;-145.72;100.00
15914;BME280;8055;51.930;8.840;2024-02-28T03:15:00;77863.44;;;-145.72;100.00
15914;BME280;8055;51.930;8.840;2024-02-28T03:17:25;77882.06;;;-145.72;100.00
15914;BME280;8055;51.930;8.840;2024-02-28T03:19:51;77880.00;;;-145.72;100.00
15914;BME280;8055;51.930;8.840;2024-02-28T03:22:16;77890.34;;;-145.72;100.00
15914;BME280;8055;51.930;8.840;2024-02-28T03:24:41;77890.34;;;-145.72;100.00
15914;BME280;8055;51.930;8.840;2024-02-28T03:27:07;77882.06;;;-145.72;100.00
15914;BME280;8055;51.930;8.840;2024-02-28T03:29:35;77892.41;;;-145.72;100.00
15914;BME280;8055;51.930;8.840;2024-02-28T03:32:00;77880.00;;;-145.72;100.00
15914;BME280;8055;51.930;8.840;2024-02-28T03:34:25;77888.28;;;-145.72;100.00
15914;BME280;8055;51.930;8.840;2024-02-28T03:36:51;77882.06;;;-145.72;100.00
15914;BME280;8055;51.930;8.840;2024-02-28T03:39:16;77886.19;;;-145.72;100.00
15914;BME280;8055;51.930;8.840;2024-02-28T03:41:42;77882.06;;;-145.72;100.00
15914;BME280;8055;51.930;8.840;2024-02-28T03:44:08;77900.69;;;-145.72;100.00
15914;BME280;8055;51.930;8.840;2024-02-28T03:46:33;77890.34;;;-145.72;100.00
15914;BME280;8055;51.930;8.840;2024-02-28T03:48:59;77886.19;;;-145.72;100.00
15914;BME280;8055;51.930;8.840;2024-02-28T03:51:24;77904.84;;;-145.72;100.00
15914;BME280;8055;51.930;8.840;2024-02-28T03:53:50;77896.56;;;-145.72;100.00
15914;BME280;8055;51.930;8.840;2024-02-28T03:56:25;77894.47;;;-145.72;100.00
15914;BME280;8055;51.930;8.840;2024-02-28T03:58:51;77894.47;;;-145.72;100.00
15914;BME280;8055;51.930;8.840;2024-02-28T04:01:16;77900.69;;;-145.72;100.00
15914;BME280;8055;51.930;8.840;2024-02-28T04:03:42;77898.63;;;-145.72;100.00
15914;BME280;8055;51.930;8.840;2024-02-28T04:06:07;77892.41;;;-145.72;100.00
15914;BME280;8055;51.930;8.840;2024-02-28T04:08:32;77896.56;;;-145.72;100.00
15914;BME280;8055;51.930;8.840;2024-02-28T04:10:58;77894.47;;;-145.72;100.00
15914;BME280;8055;51.930;8.840;2024-02-28T04:13:23;77902.75;;;-145.72;100.00
15914;BME280;8055;51.930;8.840;2024-02-28T04:15:49;77908.97;;;-145.72;100.00
15914;BME280;8055;51.930;8.840;2024-02-28T04:18:14;77902.75;;;-145.72;100.00
15914;BME280;8055;51.930;8.840;2024-02-28T04:20:39;77923.47;;;-145.72;100.00
15914;BME280;8055;51.930;8.840;2024-02-28T04:23:05;77925.53;;;-145.72;100.00
15914;BME280;8055;51.930;8.840;2024-02-28T04:25:30;77923.47;;;-145.72;100.00
15914;BME280;8055;51.930;8.840;2024-02-28T04:27:55;77929.69;;;-145.72;100.00
15914;BME280;8055;51.930;8.840;2024-02-28T04:30:22;77921.41;;;-145.72;100.00
15914;BME280;8055;51.930;8.840;2024-02-28T04:32:47;77925.53;;;-145.72;100.00
15914;BME280;8055;51.930;8.840;2024-02-28T04:35:13;77935.91;;;-145.72;100.00
15914;BME280;8055;51.930;8.840;2024-02-28T04:37:40;77935.91;;;-145.72;100.00
15914;BME280;8055;51.930;8.840;2024-02-28T04:40:06;77933.81;;;-145.72;100.00
15914;BME280;8055;51.930;8.840;2024-02-28T04:42:32;77944.16;;;-145.72;100.00
15914;BME280;8055;51.930;8.840;2024-02-28T04:44:57;77952.44;;;-145.72;100.00
15914;BME280;8055;51.930;8.840;2024-02-28T04:47:22;77954.53;;;-145.72;100.00
15914;BME280;8055;51.930;8.840;2024-02-28T04:49:48;77944.16;;;-145.72;100.00
15914;BME280;8055;51.930;8.840;2024-02-28T04:52:13;77952.44;;;-145.72;100.00
15914;BME280;8055;51.930;8.840;2024-02-28T04:54:40;77958.66;;;-145.72;100.00
15914;BME280;8055;51.930;8.840;2024-02-28T04:57:06;77960.72;;;-145.72;100.00
15914;BME280;8055;51.930;8.840;2024-02-28T04:59:31;77973.16;;;-145.72;100.00
15914;BME280;8055;51.930;8.840;2024-02-28T05:01:57;77971.09;;;-145.72;100.00
15914;BME280;8055;51.930;8.840;2024-02-28T05:04:22;77977.31;;;-145.72;100.00
15914;BME280;8055;51.930;8.840;2024-02-28T05:06:48;77964.88;;;-145.72;100.00
15914;BME280;8055;51.930;8.840;2024-02-28T05:09:14;77964.88;;;-145.72;100.00
15914;BME280;8055;51.930;8.840;2024-02-28T05:11:40;77964.88;;;-145.72;100.00
15914;BME280;8055;51.930;8.840;2024-02-28T05:14:06;77960.72;;;-145.72;100.00
15914;BME280;8055;51.930;8.840;2024-02-28T05:16:31;77962.81;;;-145.72;100.00
15914;BME280;8055;51.930;8.840;2024-02-28T05:18:57;77971.09;;;-145.72;100.00
15914;BME280;8055;51.930;8.840;2024-02-28T05:21:22;77969.03;;;-145.72;100.00
15914;BME280;8055;51.930;8.840;2024-02-28T05:23:48;77973.16;;;-145.72;100.00
15914;BME280;8055;51.930;8.840;2024-02-28T05:26:13;77981.44;;;-145.72;100.00
15914;BME280;8055;51.930;8.840;2024-02-28T05:28:39;77977.31;;;-145.72;100.00
15914;BME280;8055;51.930;8.840;2024-02-28T05:31:22;77983.50;;;-145.72;100.00
15914;BME280;8055;51.930;8.840;2024-02-28T05:33:50;77995.94;;;-145.72;100.00
15914;BME280;8055;51.930;8.840;2024-02-28T05:36:16;78006.28;;;-145.72;100.00
15914;BME280;8055;51.930;8.840;2024-02-28T05:38:42;78008.34;;;-145.72;100.00
15914;BME280;8055;51.930;8.840;2024-02-28T05:41:08;78010.44;;;-145.72;100.00
15914;BME280;8055;51.930;8.840;2024-02-28T05:43:33;78018.72;;;-145.72;100.00
15914;BME280;8055;51.930;8.840;2024-02-28T05:45:58;78016.63;;;-145.72;100.00
15914;BME280;8055;51.930;8.840;2024-02-28T05:48:24;78016.63;;;-145.72;100.00
15914;BME280;8055;51.930;8.840;2024-02-28T05:50:49;78010.44;;;-145.72;100.00
15914;BME280;8055;51.930;8.840;2024-02-28T05:53:14;78012.50;;;-145.72;100.00
15914;BME280;8055;51.930;8.840;2024-02-28T05:55:40;78016.63;;;-145.72;100.00
15914;BME280;8055;51.930;8.840;2024-02-28T05:58:05;78000.06;;;-145.72;100.00
15914;BME280;8055;51.930;8.840;2024-02-28T06:00:30;77993.84;;;-145.72;100.00
15914;BME280;8055;51.930;8.840;2024-02-28T06:02:56;77981.44;;;-145.72;100.00
15914;BME280;8055;51.930;8.840;2024-02-28T06:05:21;77987.66;;;-145.72;100.00
15914;BME280;8055;51.930;8.840;2024-02-28T06:07:46;77985.59;;;-145.72;100.00
15914;BME280;8055;51.930;8.840;2024-02-28T06:10:12;77981.44;;;-145.72;100.00
15914;BME280;8055;51.930;8.840;2024-02-28T06:12:37;77981.44;;;-145.72;100.00
15914;BME280;8055;51.930;8.840;2024-02-28T06:15:04;77969.03;;;-145.72;100.00
15914;BME280;8055;51.930;8.840;2024-02-28T06:17:29;77962.81;;;-145.72;100.00
15914;BME280;8055;51.930;8.840;2024-02-28T06:19:55;77956.59;;;-145.72;100.00
15914;BME280;8055;51.930;8.840;2024-02-28T06:22:20;77956.59;;;-145.72;100.00
15914;BME280;8055;51.930;8.840;2024-02-28T06:24:46;77960.72;;;-145.72;100.00
15914;BME280;8055;51.930;8.840;2024-02-28T06:27:11;77954.53;;;-145.72;100.00
15914;BME280;8055;51.930;8.840;2024-02-28T06:29:41;77956.59;;;-145.72;100.00
15914;BME280;8055;51.930;8.840;2024-02-28T06:32:07;77958.66;;;-145.72;100.00
15914;BME280;8055;51.930;8.840;2024-02-28T06:34:32;77952.44;;;-145.72;100.00
15914;BME280;8055;51.930;8.840;2024-02-28T06:36:58;77952.44;;;-145.72;100.00
15914;BME280;8055;51.930;8.840;2024-02-28T06:39:23;77948.31;;;-145.72;100.00
15914;BME280;8055;51.930;8.840;2024-02-28T06:41:48;77946.25;;;-145.72;100.00
15914;BME280;8055;51.930;8.840;2024-02-28T06:44:19;77933.81;;;-145.72;100.00
15914;BME280;8055;51.930;8.840;2024-02-28T06:46:44;77931.75;;;-145.72;100.00
15914;BME280;8055;51.930;8.840;2024-02-28T06:49:10;77921.41;;;-145.72;100.00
15914;BME280;8055;51.930;8.840;2024-02-28T06:51:35;77917.25;;;-145.72;100.00
15914;BME280;8055;51.930;8.840;2024-02-28T06:54:01;77908.97;;;-145.72;100.00
15914;BME280;8055;51.930;8.840;2024-02-28T06:56:26;77906.91;;;-145.72;100.00
15914;BME280;8055;51.930;8.840;2024-02-28T06:58:52;77894.47;;;-145.72;100.00
15914;BME280;8055;51.930;8.840;2024-02-28T07:01:17;77880.00;;;-145.72;100.00
15914;BME280;8055;51.930;8.840;2024-02-28T07:03:43;77875.84;;;-145.72;100.00
15914;BME280;8055;51.930;8.840;2024-02-28T07:06:09;77844.78;;;-145.72;100.00
15914;BME280;8055;51.930;8.840;2024-02-28T07:08:34;77836.50;;;-145.72;100.00
15914;BME280;8055;51.930;8.840;2024-02-28T07:11:00;77817.88;;;-145.72;100.00
15914;BME280;8055;51.930;8.840;2024-02-28T07:13:25;77801.31;;;-145.72;100.00
15914;BME280;8055;51.930;8.840;2024-02-28T07:15:52;77788.91;;;-145.72;100.00
15914;BME280;8055;51.930;8.840;2024-02-28T07:18:19;77770.25;;;-145.72;100.00
15914;BME280;8055;51.930;8.840;2024-02-28T07:20:45;77757.84;;;-145.72;100.00
15914;BME280;8055;51.930;8.840;2024-02-28T07:23:10;77747.50;;;-145.72;100.00
15914;BME280;8055;51.930;8.840;2024-02-28T07:25:36;77741.28;;;-145.72;100.00
15914;BME280;8055;51.930;8.840;2024-02-28T07:28:01;77737.13;;;-145.72;100.00
15914;BME280;8055;51.930;8.840;2024-02-28T07:30:27;77735.06;;;-145.72;100.00
15914;BME280;8055;51.930;8.840;2024-02-28T07:32:53;77733.00;;;-145.72;100.00
15914;BME280;8055;51.930;8.840;2024-02-28T07:35:19;77720.59;;;-145.72;100.00
15914;BME280;8055;51.930;8.840;2024-02-28T07:37:46;77714.38;;;-145.72;100.00
15914;BME280;8055;51.930;8.840;2024-02-28T07:40:12;77695.75;;;-145.72;100.00
15914;BME280;8055;51.930;8.840;2024-02-28T07:42:37;77695.75;;;-145.72;100.00
15914;BME280;8055;51.930;8.840;2024-02-28T07:45:03;77695.75;;;-145.72;100.00
15914;BME280;8055;51.930;8.840;2024-02-28T07:47:28;77683.31;;;-145.72;100.00
15914;BME280;8055;51.930;8.840;2024-02-28T07:49:54;77672.97;;;-145.72;100.00
15914;BME280;8055;51.930;8.840;2024-02-28T07:52:19;77672.97;;;-145.72;100.00
15914;BME280;8055;51.930;8.840;2024-02-28T07:54:45;77675.03;;;-145.72;100.00
15914;BME280;8055;51.930;8.840;2024-02-28T07:57:11;77668.81;;;-145.72;100.00
15914;BME280;8055;51.930;8.840;2024-02-28T07:59:40;77670.91;;;-145.72;100.00
15914;BME280;8055;51.930;8.840;2024-02-28T08:02:07;77670.91;;;-145.72;100.00
15914;BME280;8055;51.930;8.840;2024-02-28T08:04:32;77670.91;;;-145.72;100.00
15914;BME280;8055;51.930;8.840;2024-02-28T08:06:59;77672.97;;;-145.72;100.00
15914;BME280;8055;51.930;8.840;2024-02-28T08:09:25;77664.69;;;-145.72;100.00
15914;BME280;8055;51.930;8.840;2024-02-28T08:11:50;77662.63;;;-145.72;100.00
15914;BME280;8055;51.930;8.840;2024-02-28T08:14:16;77662.63;;;-145.72;100.00
15914;BME280;8055;51.930;8.840;2024-02-28T08:16:41;77668.81;;;-145.72;100.00
15914;BME280;8055;51.930;8.840;2024-02-28T08:19:06;77662.63;;;-145.72;100.00
15914;BME280;8055;51.930;8.840;2024-02-28T08:21:32;77660.53;;;-145.72;100.00
15914;BME280;8055;51.930;8.840;2024-02-28T08:23:57;77660.53;;;-145.72;100.00
15914;BME280;8055;51.930;8.840;2024-02-28T08:26:28;77656.41;;;-145.72;100.00
15914;BME280;8055;51.930;8.840;2024-02-28T08:28:54;77654.34;;;-145.72;100.00
15914;BME280;8055;51.930;8.840;2024-02-28T08:31:19;77643.97;;;-145.72;100.00
15914;BME280;8055;51.930;8.840;2024-02-28T08:33:44;77648.13;;;-145.72;100.00
15914;BME280;8055;51.930;8.840;2024-02-28T08:36:10;77633.63;;;-145.72;100.00
15914;BME280;8055;51.930;8.840;2024-02-28T08:38:35;77629.50;;;-145.72;100.00
15914;BME280;8055;51.930;8.840;2024-02-28T08:41:03;77621.22;;;-145.72;100.00
15914;BME280;8055;51.930;8.840;2024-02-28T08:43:29;77623.28;;;-145.72;100.00
15914;BME280;8055;51.930;8.840;2024-02-28T08:45:54;77627.41;;;-145.72;100.00
15914;BME280;8055;51.930;8.840;2024-02-28T08:48:20;77629.50;;;-145.72;100.00
15914;BME280;8055;51.930;8.840;2024-02-28T08:50:46;77635.69;;;-145.72;100.00
15914;BME280;8055;51.930;8.840;2024-02-28T08:53:11;77637.78;;;-145.72;100.00
15914;BME280;8055;51.930;8.840;2024-02-28T08:55:36;77650.19;;;-145.72;100.00
15914;BME280;8055;51.930;8.840;2024-02-28T08:58:02;77654.34;;;-145.72;100.00
15914;BME280;8055;51.930;8.840;2024-02-28T09:00:27;77648.13;;;-145.72;100.00
15914;BME280;8055;51.930;8.840;2024-02-28T09:02:53;77648.13;;;-145.72;100.00
15914;BME280;8055;51.930;8.840;2024-02-28T09:05:18;77637.78;;;-145.72;100.00
15914;BME280;8055;51.930;8.840;2024-02-28T09:07:44;77629.50;;;-145.72;100.00
15914;BME280;8055;51.930;8.840;2024-02-28T09:10:09;77623.28;;;-145.72;100.00
15914;BME280;8055;51.930;8.840;2024-02-28T09:12:36;77612.94;;;-145.72;100.00
15914;BME280;8055;51.930;8.840;2024-02-28T09:15:01;77598.44;;;-145.72;100.00
15914;BME280;8055;51.930;8.840;2024-02-28T09:17:27;77583.94;;;-145.72;100.00
15914;BME280;8055;51.930;8.840;2024-02-28T09:19:52;77577.75;;;-145.72;100.00
15914;BME280;8055;51.930;8.840;2024-02-28T09:22:18;77563.25;;;-145.72;100.00
15914;BME280;8055;51.930;8.840;2024-02-28T09:24:43;77559.09;;;-145.72;100.00
15914;BME280;8055;51.930;8.840;2024-02-28T09:27:09;77548.75;;;-145.72;100.00
15914;BME280;8055;51.930;8.840;2024-02-28T09:29:34;77530.13;;;-145.72;100.00
15914;BME280;8055;51.930;8.840;2024-02-28T09:32:00;77513.56;;;-145.72;100.00
15914;BME280;8055;51.930;8.840;2024-02-28T09:34:25;77501.13;;;-145.72;100.00
15914;BME280;8055;51.930;8.840;2024-02-28T09:36:50;77501.13;;;-145.72;100.00
15914;BME280;8055;51.930;8.840;2024-02-28T09:39:16;77499.06;;;-145.72;100.00
15914;BME280;8055;51.930;8.840;2024-02-28T09:41:41;77488.72;;;-145.72;100.00
15914;BME280;8055;51.930;8.840;2024-02-28T09:44:07;77476.31;;;-145.72;100.00
15914;BME280;8055;51.930;8.840;2024-02-28T09:46:33;77455.59;;;-145.72;100.00
15914;BME280;8055;51.930;8.840;2024-02-28T09:49:05;77447.31;;;-145.72;100.00
15914;BME280;8055;51.930;8.840;2024-02-28T09:51:33;77445.25;;;-145.72;100.00
15914;BME280;8055;51.930;8.840;2024-02-28T09:54:00;77436.97;;;-145.72;100.00
15914;BME280;8055;51.930;8.840;2024-02-28T09:56:25;77430.75;;;-145.72;100.00
15914;BME280;8055;51.930;8.840;2024-02-28T09:58:51;77426.63;;;-145.72;100.00
15914;BME280;8055;51.930;8.840;2024-02-28T10:01:19;77426.63;;;-145.72;100.00
15914;BME280;8055;51.930;8.840;2024-02-28T10:03:47;77405.91;;;-145.72;100.00
15914;BME280;8055;51.930;8.840;2024-02-28T10:06:13;77385.22;;;-145.72;100.00
15914;BME280;8055;51.930;8.840;2024-02-28T10:08:39;77352.09;;;-145.72;100.00
15914;BME280;8055;51.930;8.840;2024-02-28T10:11:04;77345.88;;;-145.72;100.00
15914;BME280;8055;51.930;8.840;2024-02-28T10:13:31;77341.75;;;-145.72;100.00
15914;BME280;8055;51.930;8.840;2024-02-28T10:15:56;77368.66;;;-145.72;100.00
15914;BME280;8055;51.930;8.840;2024-02-28T10:18:22;77372.78;;;-145.72;100.00
15914;BME280;8055;51.930;8.840;2024-02-28T10:20:47;77376.94;;;-145.72;100.00
15914;BME280;8055;51.930;8.840;2024-02-28T10:23:13;77370.72;;;-145.72;100.00
15914;BME280;8055;51.930;8.840;2024-02-28T10:25:45;77366.59;;;-145.72;100.00
15914;BME280;8055;51.930;8.840;2024-02-28T10:28:12;77362.44;;;-145.72;100.00
15914;BME280;8055;51.930;8.840;2024-02-28T10:30:42;77352.09;;;-145.72;100.00
15914;BME280;8055;51.930;8.840;2024-02-28T10:33:15;77335.53;;;-145.72;100.00
15914;BME280;8055;51.930;8.840;2024-02-28T10:35:41;77327.25;;;-145.72;100.00
15914;BME280;8055;51.930;8.840;2024-02-28T10:38:13;77302.41;;;-145.72;100.00
15914;BME280;8055;51.930;8.840;2024-02-28T10:40:40;77285.84;;;-145.72;100.00
15914;BME280;8055;51.930;8.840;2024-02-28T10:43:07;77267.22;;;-145.72;100.00
15914;BME280;8055;51.930;8.840;2024-02-28T10:45:35;77273.44;;;-145.72;100.00
15914;BME280;8055;51.930;8.840;2024-02-28T10:48:01;77261.00;;;-145.72;100.00
15914;BME280;8055;51.930;8.840;2024-02-28T10:50:27;77267.22;;;-145.72;100.00
15914;BME280;8055;51.930;8.840;2024-02-28T10:52:52;77250.66;;;-145.72;100.00
15914;BME280;8055;51.930;8.840;2024-02-28T10:55:21;77246.53;;;-145.72;100.00
15914;BME280;8055;51.930;8.840;2024-02-28T10:57:54;77244.44;;;-145.72;100.00
15914;BME280;8055;51.930;8.840;2024-02-28T11:00:21;77252.72;;;-145.72;100.00
15914;BME280;8055;51.930;8.840;2024-02-28T11:02:46;77232.03;;;-145.72;100.00
15914;BME280;8055;51.930;8.840;2024-02-28T11:05:12;77232.03;;;-145.72;100.00
15914;BME280;8055;51.930;8.840;2024-02-28T11:07:41;77232.03;;;-145.72;100.00
15914;BME280;8055;51.930;8.840;2024-02-28T11:10:07;77229.97;;;-145.72;100.00
15914;BME280;8055;51.930;8.840;2024-02-28T11:12:32;77244.44;;;-145.72;100.00
15914;BME280;8055;51.930;8.840;2024-02-28T11:14:58;77221.69;;;-145.72;100.00
15914;BME280;8055;51.930;8.840;2024-02-28T11:17:28;77182.34;;;-145.72;100.00
15914;BME280;8055;51.930;8.840;2024-02-28T11:19:54;77198.91;;;-145.72;100.00
15914;BME280;8055;51.930;8.840;2024-02-28T11:22:20;77190.63;;;-145.72;100.00
15914;BME280;8055;51.930;8.840;2024-02-28T11:24:46;77221.69;;;-145.72;100.00
15914;BME280;8055;51.930;8.840;2024-02-28T11:27:12;77203.06;;;-145.72;100.00
15914;BME280;8055;51.930;8.840;2024-02-28T11:29:41;77211.34;;;-145.72;100.00
15914;BME280;8055;51.930;8.840;2024-02-28T11:32:06;77198.91;;;-145.72;100.00
15914;BME280;8055;51.930;8.840;2024-02-28T11:34:34;77178.22;;;-145.72;100.00
15914;BME280;8055;51.930;8.840;2024-02-28T11:36:59;77178.22;;;-145.72;100.00
15914;BME280;8055;51.930;8.840;2024-02-28T11:39:24;77184.44;;;-145.72;100.00
15914;BME280;8055;51.930;8.840;2024-02-28T11:41:51;77186.50;;;-145.72;100.00
15914;BME280;8055;51.930;8.840;2024-02-28T11:44:18;77194.78;;;-145.72;100.00
15914;BME280;8055;51.930;8.840;2024-02-28T11:46:47;77219.63;;;-145.72;100.00
15914;BME280;8055;51.930;8.840;2024-02-28T11:49:13;77254.81;;;-145.72;100.00
15914;BME280;8055;51.930;8.840;2024-02-28T11:51:42;77232.03;;;-145.72;100.00
15914;BME280;8055;51.930;8.840;2024-02-28T11:54:09;77192.72;;;-145.72;100.00
15914;BME280;8055;51.930;8.840;2024-02-28T11:56:36;77169.94;;;-145.72;100.00
15914;BME280;8055;51.930;8.840;2024-02-28T11:59:03;77165.78;;;-145.72;100.00
15914;BME280;8055;51.930;8.840;2024-02-28T12:04:03;77099.56;;;-145.72;100.00
15914;BME280;8055;51.930;8.840;2024-02-28T12:06:30;77087.13;;;-145.72;100.00
15914;BME280;8055;51.930;8.840;2024-02-28T12:08:55;77087.13;;;-145.72;100.00
15914;BME280;8055;51.930;8.840;2024-02-28T12:11:20;77083.00;;;-145.72;100.00
15914;BME280;8055;51.930;8.840;2024-02-28T12:13:46;77070.56;;;-145.72;100.00
15914;BME280;8055;51.930;8.840;2024-02-28T12:16:11;77051.94;;;-145.72;100.00
15914;BME280;8055;51.930;8.840;2024-02-28T12:18:36;77033.31;;;-145.72;100.00
15914;BME280;8055;51.930;8.840;2024-02-28T12:21:02;77037.47;;;-145.72;100.00
15914;BME280;8055;51.930;8.840;2024-02-28T12:23:29;77035.38;;;-145.72;100.00
15914;BME280;8055;51.930;8.840;2024-02-28T12:25:54;77006.41;;;-145.72;100.00
15914;BME280;8055;51.930;8.840;2024-02-28T12:28:19;76987.78;;;-145.72;100.00
15914;BME280;8055;51.930;8.840;2024-02-28T12:30:45;77016.75;;;-145.72;97.63
15914;BME280;8055;51.930;8.840;2024-02-28T12:33:11;77010.56;;;-145.72;98.87
15914;BME280;8055;51.930;8.840;2024-02-28T12:35:37;76989.84;;;-145.72;99.91